createdAt,value
2017-05-17T00:00:21.187Z,12.62
2017-05-17T00:01:22.089Z,12.68
2017-05-17T00:02:22.790Z,12.62
2017-05-17T00:03:23.491Z,12.64
2017-05-17T00:04:24.190Z,12.57
2017-05-17T00:05:24.892Z,12.49
2017-05-17T00:06:25.847Z,12.53
2017-05-17T00:07:26.551Z,12.43
2017-05-17T00:08:27.253Z,12.45
2017-05-17T00:09:27.953Z,12.42
2017-05-17T00:10:28.655Z,12.40
2017-05-17T00:11:29.607Z,12.39
2017-05-17T00:12:30.314Z,12.31
2017-05-17T00:13:31.013Z,12.39
2017-05-17T00:14:31.715Z,12.40
2017-05-17T00:15:32.414Z,12.40
2017-05-17T00:16:33.367Z,12.42
2017-05-17T00:17:34.068Z,12.39
2017-05-17T00:18:34.765Z,12.42
2017-05-17T00:19:35.467Z,12.40
2017-05-17T00:20:36.169Z,12.40
2017-05-17T00:21:37.122Z,12.39
2017-05-17T00:22:37.819Z,12.36
2017-05-17T00:23:38.518Z,12.29
2017-05-17T00:24:39.221Z,12.31
2017-05-17T00:25:39.923Z,12.32
2017-05-17T00:26:40.874Z,12.24
2017-05-17T00:27:41.570Z,12.24
2017-05-17T00:28:42.271Z,12.24
2017-05-17T00:29:42.971Z,12.25
2017-05-17T00:30:43.672Z,12.22
2017-05-17T00:31:44.624Z,12.18
2017-05-17T00:32:45.325Z,12.17
2017-05-17T00:33:46.028Z,12.22
2017-05-17T00:34:46.729Z,12.15
2017-05-17T00:35:47.432Z,12.20
2017-05-17T00:36:48.390Z,12.22
2017-05-17T00:37:49.090Z,12.13
2017-05-17T00:38:49.799Z,12.18
2017-05-17T00:39:50.499Z,12.04
2017-05-17T00:40:51.201Z,12.17
2017-05-17T00:41:52.154Z,12.04
2017-05-17T00:42:52.853Z,12.04
2017-05-17T00:43:53.555Z,12.02
2017-05-17T00:44:54.266Z,12.07
2017-05-17T00:45:54.975Z,12.02
2017-05-17T00:46:55.931Z,12.04
2017-05-17T00:47:56.629Z,11.90
2017-05-17T00:48:57.329Z,11.99
2017-05-17T00:49:58.032Z,11.99
2017-05-17T00:50:58.733Z,11.94
2017-05-17T00:51:59.685Z,11.94
2017-05-17T00:53:00.384Z,11.90
2017-05-17T00:54:01.081Z,11.97
2017-05-17T00:55:01.779Z,11.95
2017-05-17T00:56:02.479Z,11.86
2017-05-17T00:57:03.430Z,11.86
2017-05-17T00:58:04.134Z,11.77
2017-05-17T00:59:04.837Z,11.80
2017-05-17T01:00:05.539Z,11.83
2017-05-17T01:01:06.237Z,11.69
2017-05-17T01:02:07.194Z,11.66
2017-05-17T01:03:07.894Z,11.72
2017-05-17T01:04:08.599Z,11.72
2017-05-17T01:05:09.299Z,11.68
2017-05-17T01:06:10.005Z,11.77
2017-05-17T01:07:10.952Z,11.66
2017-05-17T01:08:11.654Z,11.73
2017-05-17T01:09:12.364Z,11.65
2017-05-17T01:10:13.064Z,11.70
2017-05-17T01:11:13.764Z,11.68
2017-05-17T01:12:14.719Z,11.65
2017-05-17T01:13:15.419Z,11.59
2017-05-17T01:14:16.116Z,11.68
2017-05-17T01:15:16.818Z,11.57
2017-05-17T01:16:17.519Z,11.57
2017-05-17T01:17:18.474Z,11.63
2017-05-17T01:18:19.180Z,11.55
2017-05-17T01:19:19.883Z,11.62
2017-05-17T01:20:20.584Z,11.50
2017-05-17T01:21:21.287Z,11.54
2017-05-17T01:22:22.243Z,11.47
2017-05-17T01:23:22.943Z,11.44
2017-05-17T01:24:23.643Z,11.47
2017-05-17T01:25:24.346Z,11.51
2017-05-17T01:26:25.051Z,11.44
2017-05-17T01:27:26.001Z,11.47
2017-05-17T01:28:26.705Z,11.47
2017-05-17T01:29:27.408Z,11.45
2017-05-17T01:30:28.103Z,11.33
2017-05-17T01:31:28.805Z,11.36
2017-05-17T01:32:29.756Z,11.32
2017-05-17T01:33:30.457Z,11.27
2017-05-17T01:34:31.157Z,11.32
2017-05-17T01:35:31.857Z,11.26
2017-05-17T01:36:32.572Z,11.27
2017-05-17T01:37:33.523Z,11.26
2017-05-17T01:38:34.223Z,11.27
2017-05-17T01:39:34.923Z,11.22
2017-05-17T01:40:35.629Z,11.25
2017-05-17T01:41:36.331Z,11.25
2017-05-17T01:42:37.230Z,11.12
2017-05-17T01:43:37.927Z,11.17
2017-05-17T01:44:38.635Z,11.17
2017-05-17T01:45:39.339Z,11.15
2017-05-17T01:46:40.041Z,11.15
2017-05-17T01:47:40.945Z,11.22
2017-05-17T01:48:41.644Z,11.25
2017-05-17T01:49:42.345Z,11.17
2017-05-17T01:50:43.052Z,11.18
2017-05-17T01:51:43.761Z,11.15
2017-05-17T01:52:44.762Z,11.14
2017-05-17T01:53:45.462Z,11.17
2017-05-17T01:54:46.167Z,11.18
2017-05-17T01:55:46.865Z,11.18
2017-05-17T01:56:47.571Z,11.17
2017-05-17T01:57:48.471Z,11.22
2017-05-17T01:58:49.179Z,11.14
2017-05-17T01:59:49.885Z,11.12
2017-05-17T02:00:50.586Z,11.32
2017-05-17T02:01:51.287Z,11.12
2017-05-17T02:02:52.189Z,11.15
2017-05-17T02:03:52.891Z,11.15
2017-05-17T02:04:53.643Z,11.19
2017-05-17T02:05:54.350Z,11.18
2017-05-17T02:06:55.051Z,11.19
2017-05-17T02:07:56.011Z,11.14
2017-05-17T02:08:56.714Z,11.22
2017-05-17T02:09:57.412Z,11.18
2017-05-17T02:10:58.118Z,11.15
2017-05-17T02:11:58.816Z,11.17
2017-05-17T02:12:59.782Z,11.08
2017-05-17T02:14:00.482Z,11.18
2017-05-17T02:15:01.190Z,11.02
2017-05-17T02:16:01.889Z,11.07
2017-05-17T02:17:02.594Z,11.04
2017-05-17T02:18:03.543Z,11.04
2017-05-17T02:19:04.245Z,11.04
2017-05-17T02:20:04.943Z,11.02
2017-05-17T02:21:05.641Z,11.02
2017-05-17T02:22:06.346Z,10.94
2017-05-17T02:23:07.298Z,11.02
2017-05-17T02:24:08.009Z,11.08
2017-05-17T02:25:08.711Z,11.02
2017-05-17T02:26:09.411Z,10.96
2017-05-17T02:27:10.109Z,11.08
2017-05-17T02:28:11.007Z,10.99
2017-05-17T02:29:11.707Z,10.97
2017-05-17T02:30:12.410Z,10.96
2017-05-17T02:31:13.111Z,10.97
2017-05-17T02:32:13.808Z,10.87
2017-05-17T02:33:14.756Z,10.93
2017-05-17T02:34:15.459Z,10.93
2017-05-17T02:35:16.158Z,10.90
2017-05-17T02:36:16.860Z,10.86
2017-05-17T02:37:17.564Z,10.82
2017-05-17T02:38:18.465Z,10.89
2017-05-17T02:39:19.165Z,10.76
2017-05-17T02:40:19.862Z,10.87
2017-05-17T02:41:20.560Z,10.78
2017-05-17T02:42:21.262Z,10.72
2017-05-17T02:43:22.225Z,10.76
2017-05-17T02:44:22.928Z,10.75
2017-05-17T02:45:23.638Z,10.74
2017-05-17T02:46:24.338Z,10.78
2017-05-17T02:47:25.041Z,10.67
2017-05-17T02:48:25.997Z,10.71
2017-05-17T02:49:26.705Z,10.64
2017-05-17T02:50:27.410Z,10.69
2017-05-17T02:51:28.108Z,10.68
2017-05-17T02:52:28.850Z,10.67
2017-05-17T02:53:29.801Z,10.69
2017-05-17T02:54:30.498Z,10.57
2017-05-17T02:55:31.196Z,10.76
2017-05-17T02:56:31.897Z,10.72
2017-05-17T02:57:32.595Z,10.67
2017-05-17T02:58:33.553Z,10.68
2017-05-17T02:59:34.255Z,10.67
2017-05-17T03:00:34.956Z,10.76
2017-05-17T03:01:35.656Z,10.64
2017-05-17T03:02:36.352Z,10.71
2017-05-17T03:03:37.349Z,10.71
2017-05-17T03:04:38.046Z,10.69
2017-05-17T03:05:38.748Z,10.60
2017-05-17T03:06:39.449Z,10.68
2017-05-17T03:07:40.147Z,10.68
2017-05-17T03:08:41.046Z,10.67
2017-05-17T03:09:41.758Z,10.75
2017-05-17T03:10:42.456Z,10.64
2017-05-17T03:11:43.408Z,10.56
2017-05-17T03:12:44.118Z,10.60
2017-05-17T03:13:45.020Z,10.67
2017-05-17T03:14:45.722Z,10.57
2017-05-17T03:15:46.434Z,10.63
2017-05-17T03:16:47.136Z,10.51
2017-05-17T03:17:47.842Z,10.59
2017-05-17T03:18:49.028Z,10.53
2017-05-17T03:19:49.730Z,10.56
2017-05-17T03:20:50.433Z,10.54
2017-05-17T03:21:51.131Z,10.53
2017-05-17T03:22:51.835Z,10.44
2017-05-17T03:23:52.783Z,10.53
2017-05-17T03:24:53.484Z,10.49
2017-05-17T03:25:54.183Z,10.49
2017-05-17T03:26:55.561Z,10.44
2017-05-17T03:27:56.261Z,10.38
2017-05-17T03:28:57.213Z,10.41
2017-05-17T03:29:57.911Z,10.38
2017-05-17T03:30:58.612Z,10.44
2017-05-17T03:31:59.315Z,10.38
2017-05-17T03:33:00.018Z,10.48
2017-05-17T03:34:00.971Z,10.44
2017-05-17T03:35:01.671Z,10.48
2017-05-17T03:36:02.375Z,10.42
2017-05-17T03:37:03.075Z,10.37
2017-05-17T03:38:03.776Z,10.41
2017-05-17T03:39:04.727Z,10.51
2017-05-17T03:40:05.431Z,10.37
2017-05-17T03:41:06.131Z,10.25
2017-05-17T03:42:06.832Z,10.41
2017-05-17T03:43:07.534Z,10.37
2017-05-17T03:44:08.490Z,10.40
2017-05-17T03:45:09.195Z,10.49
2017-05-17T03:46:09.897Z,10.26
2017-05-17T03:47:10.602Z,10.25
2017-05-17T03:48:11.305Z,10.23
2017-05-17T03:49:12.256Z,10.25
2017-05-17T03:50:12.958Z,10.40
2017-05-17T03:51:13.661Z,10.30
2017-05-17T03:52:14.369Z,10.38
2017-05-17T03:53:15.072Z,10.35
2017-05-17T03:54:16.025Z,10.37
2017-05-17T03:55:16.731Z,10.40
2017-05-17T03:56:17.431Z,10.37
2017-05-17T03:57:18.134Z,10.35
2017-05-17T03:58:18.840Z,10.25
2017-05-17T03:59:19.806Z,10.31
2017-05-17T04:00:20.508Z,10.28
2017-05-17T04:01:21.207Z,10.31
2017-05-17T04:02:21.910Z,10.31
2017-05-17T04:03:22.616Z,10.37
2017-05-17T04:04:23.517Z,10.40
2017-05-17T04:05:24.218Z,10.35
2017-05-17T04:06:24.923Z,10.35
2017-05-17T04:07:25.629Z,10.34
2017-05-17T04:08:26.332Z,10.37
2017-05-17T04:09:27.287Z,10.48
2017-05-17T04:10:27.994Z,10.38
2017-05-17T04:11:28.699Z,10.42
2017-05-17T04:12:29.401Z,10.38
2017-05-17T04:13:30.116Z,10.38
2017-05-17T04:14:31.067Z,10.42
2017-05-17T04:15:31.767Z,10.38
2017-05-17T04:16:32.712Z,10.42
2017-05-17T04:17:33.414Z,10.51
2017-05-17T04:18:34.118Z,10.51
2017-05-17T04:19:35.022Z,10.57
2017-05-17T04:20:35.725Z,10.56
2017-05-17T04:21:36.431Z,10.53
2017-05-17T04:22:37.131Z,10.54
2017-05-17T04:23:37.832Z,10.42
2017-05-17T04:24:38.735Z,10.54
2017-05-17T04:25:39.436Z,10.57
2017-05-17T04:26:40.138Z,10.57
2017-05-17T04:27:40.842Z,10.56
2017-05-17T04:28:41.550Z,10.64
2017-05-17T04:29:42.500Z,10.71
2017-05-17T04:30:43.203Z,10.76
2017-05-17T04:31:43.905Z,10.67
2017-05-17T04:32:44.606Z,10.67
2017-05-17T04:33:45.308Z,10.64
2017-05-17T04:34:46.264Z,10.71
2017-05-17T04:35:46.968Z,10.78
2017-05-17T04:36:47.675Z,10.78
2017-05-17T04:37:48.377Z,10.81
2017-05-17T04:38:49.080Z,10.87
2017-05-17T04:39:49.983Z,10.79
2017-05-17T04:40:50.690Z,10.81
2017-05-17T04:41:51.394Z,10.90
2017-05-17T04:42:52.099Z,11.00
2017-05-17T04:43:52.798Z,10.99
2017-05-17T04:44:53.703Z,11.10
2017-05-17T04:45:54.412Z,11.05
2017-05-17T04:46:55.122Z,11.02
2017-05-17T04:47:55.823Z,10.99
2017-05-17T04:48:56.527Z,11.08
2017-05-17T04:49:57.427Z,11.05
2017-05-17T04:50:58.130Z,11.11
2017-05-17T04:51:58.832Z,11.15
2017-05-17T04:52:59.536Z,11.17
2017-05-17T04:54:00.245Z,11.22
2017-05-17T04:55:01.199Z,11.23
2017-05-17T04:56:01.904Z,11.26
2017-05-17T04:57:02.605Z,11.32
2017-05-17T04:58:03.307Z,11.35
2017-05-17T04:59:04.009Z,11.41
2017-05-17T05:00:04.916Z,11.35
2017-05-17T05:01:05.617Z,11.37
2017-05-17T05:02:06.323Z,11.45
2017-05-17T05:03:07.028Z,11.54
2017-05-17T05:04:07.737Z,11.55
2017-05-17T05:05:08.690Z,11.54
2017-05-17T05:06:09.391Z,11.65
2017-05-17T05:07:10.092Z,11.63
2017-05-17T05:08:10.797Z,11.60
2017-05-17T05:09:11.503Z,11.68
2017-05-17T05:10:12.455Z,11.72
2017-05-17T05:11:13.156Z,11.66
2017-05-17T05:12:13.867Z,11.80
2017-05-17T05:13:14.811Z,11.81
2017-05-17T05:14:15.511Z,11.80
2017-05-17T05:15:16.464Z,11.87
2017-05-17T05:16:17.169Z,11.84
2017-05-17T05:17:17.870Z,11.87
2017-05-17T05:18:18.571Z,11.97
2017-05-17T05:19:19.271Z,12.02
2017-05-17T05:21:35.519Z,12.13
2017-05-17T05:22:36.223Z,12.09
2017-05-17T05:23:36.931Z,12.09
2017-05-17T05:24:37.638Z,12.12
2017-05-17T05:25:38.592Z,12.28
2017-05-17T05:26:39.319Z,12.27
2017-05-17T05:27:40.032Z,12.29
2017-05-17T05:28:40.738Z,12.28
2017-05-17T05:29:41.441Z,12.35
2017-05-17T05:30:42.397Z,12.42
2017-05-17T05:31:43.103Z,12.45
2017-05-17T05:32:43.806Z,12.54
2017-05-17T05:33:44.514Z,12.54
2017-05-17T05:34:45.222Z,12.49
2017-05-17T05:35:46.173Z,12.60
2017-05-17T05:36:46.876Z,12.62
2017-05-17T05:37:47.585Z,12.70
2017-05-17T05:38:48.514Z,12.62
2017-05-17T05:39:49.221Z,12.72
2017-05-17T05:40:50.176Z,12.78
2017-05-17T05:41:50.884Z,12.78
2017-05-17T05:42:51.584Z,12.82
2017-05-17T05:43:52.285Z,12.90
2017-05-17T05:44:53.037Z,12.94
2017-05-17T05:45:53.996Z,12.94
2017-05-17T05:46:54.699Z,13.05
2017-05-17T05:47:55.403Z,13.01
2017-05-17T05:48:56.109Z,13.13
2017-05-17T05:49:56.817Z,13.22
2017-05-17T05:50:57.780Z,13.15
2017-05-17T05:51:58.500Z,13.25
2017-05-17T05:52:59.203Z,13.31
2017-05-17T05:53:59.910Z,13.42
2017-05-17T05:55:00.617Z,13.44
2017-05-17T05:56:01.573Z,13.54
2017-05-17T05:57:02.275Z,13.54
2017-05-17T05:58:02.995Z,13.56
2017-05-17T05:59:03.705Z,13.60
2017-05-17T06:00:04.411Z,13.62
2017-05-17T06:01:05.313Z,13.75
2017-05-17T06:02:06.023Z,13.68
2017-05-17T06:03:06.726Z,13.83
2017-05-17T06:04:07.429Z,13.79
2017-05-17T06:05:08.188Z,13.75
2017-05-17T06:06:09.197Z,13.83
2017-05-17T06:07:09.902Z,13.89
2017-05-17T06:08:10.607Z,13.95
2017-05-17T06:09:11.322Z,13.96
2017-05-17T06:10:12.027Z,13.97
2017-05-17T06:11:12.981Z,14.03
2017-05-17T06:12:13.683Z,14.05
2017-05-17T06:13:14.391Z,14.14
2017-05-17T06:14:15.097Z,14.17
2017-05-17T06:15:15.805Z,14.28
2017-05-17T06:16:16.759Z,14.41
2017-05-17T06:17:17.462Z,14.51
2017-05-17T06:18:18.163Z,14.48
2017-05-17T06:19:18.871Z,14.65
2017-05-17T06:20:19.574Z,14.78
2017-05-17T06:21:20.485Z,14.81
2017-05-17T06:22:21.191Z,14.84
2017-05-17T06:23:21.899Z,14.89
2017-05-17T06:24:22.643Z,14.97
2017-05-17T06:25:23.354Z,14.99
2017-05-17T06:26:24.266Z,15.07
2017-05-17T06:27:24.969Z,15.21
2017-05-17T06:28:25.679Z,15.19
2017-05-17T06:29:26.384Z,15.28
2017-05-17T06:30:27.091Z,15.36
2017-05-17T06:31:27.999Z,15.42
2017-05-17T06:32:28.705Z,15.44
2017-05-17T06:33:29.412Z,15.46
2017-05-17T06:34:30.119Z,15.61
2017-05-17T06:35:30.827Z,15.72
2017-05-17T06:36:31.732Z,15.80
2017-05-17T06:37:32.455Z,15.80
2017-05-17T06:38:33.165Z,15.80
2017-05-17T06:39:33.869Z,15.94
2017-05-17T06:40:34.581Z,16.04
2017-05-17T06:41:35.486Z,16.02
2017-05-17T06:42:36.193Z,16.10
2017-05-17T06:43:36.900Z,16.21
2017-05-17T06:44:37.608Z,16.23
2017-05-17T06:45:38.320Z,16.23
2017-05-17T06:46:39.275Z,16.24
2017-05-17T06:47:39.984Z,16.29
2017-05-17T06:48:40.696Z,16.33
2017-05-17T06:49:41.404Z,16.36
2017-05-17T06:50:42.110Z,16.43
2017-05-17T06:51:43.064Z,16.47
2017-05-17T06:52:43.773Z,16.38
2017-05-17T06:53:44.484Z,16.46
2017-05-17T06:54:45.190Z,16.47
2017-05-17T06:55:45.897Z,16.54
2017-05-17T06:56:46.852Z,16.58
2017-05-17T06:57:47.560Z,16.68
2017-05-17T06:58:48.266Z,16.66
2017-05-17T06:59:48.985Z,16.74
2017-05-17T07:00:49.697Z,16.79
2017-05-17T07:01:50.603Z,16.89
2017-05-17T07:02:51.312Z,16.89
2017-05-17T07:03:52.024Z,17.09
2017-05-17T07:04:52.730Z,17.02
2017-05-17T07:05:53.436Z,17.12
2017-05-17T07:06:54.398Z,17.06
2017-05-17T07:07:55.105Z,17.09
2017-05-17T07:08:55.811Z,17.23
2017-05-17T07:09:56.520Z,17.36
2017-05-17T07:10:57.228Z,17.36
2017-05-17T07:11:58.189Z,17.38
2017-05-17T07:12:58.900Z,17.39
2017-05-17T07:13:59.609Z,17.41
2017-05-17T07:15:00.315Z,17.39
2017-05-17T07:16:01.025Z,17.65
2017-05-17T07:17:01.986Z,17.63
2017-05-17T07:18:02.699Z,17.70
2017-05-17T07:19:03.411Z,17.65
2017-05-17T07:20:04.118Z,17.85
2017-05-17T07:21:04.825Z,17.86
2017-05-17T07:22:05.786Z,17.92
2017-05-17T07:23:06.503Z,17.87
2017-05-17T07:24:07.209Z,18.04
2017-05-17T07:25:07.920Z,18.13
2017-05-17T07:26:08.639Z,18.11
2017-05-17T07:27:09.545Z,18.16
2017-05-17T07:28:10.253Z,18.22
2017-05-17T07:29:10.966Z,18.18
2017-05-17T07:30:11.672Z,18.25
2017-05-17T07:31:12.380Z,18.23
2017-05-17T07:32:13.338Z,18.20
2017-05-17T07:33:14.047Z,18.23
2017-05-17T07:34:14.754Z,18.19
2017-05-17T07:35:15.463Z,18.29
2017-05-17T07:36:16.173Z,18.29
2017-05-17T07:37:17.141Z,18.37
2017-05-17T07:38:17.854Z,18.47
2017-05-17T07:39:18.562Z,18.49
2017-05-17T07:40:19.277Z,18.56
2017-05-17T07:41:19.992Z,18.55
2017-05-17T07:42:20.906Z,18.49
2017-05-17T07:43:21.616Z,18.70
2017-05-17T07:44:22.328Z,18.63
2017-05-17T07:45:23.038Z,18.75
2017-05-17T07:46:23.754Z,18.71
2017-05-17T07:47:24.719Z,18.68
2017-05-17T07:48:25.426Z,18.81
2017-05-17T07:49:26.135Z,18.81
2017-05-17T07:50:26.843Z,18.83
2017-05-17T07:51:27.551Z,18.83
2017-05-17T07:52:28.512Z,18.89
2017-05-17T07:53:29.218Z,18.96
2017-05-17T07:54:29.929Z,18.99
2017-05-17T07:55:30.645Z,19.04
2017-05-17T07:56:31.354Z,18.99
2017-05-17T07:57:32.315Z,18.90
2017-05-17T07:58:33.028Z,19.04
2017-05-17T07:59:33.740Z,19.00
2017-05-17T08:00:34.450Z,19.08
2017-05-17T08:01:35.158Z,19.15
2017-05-17T08:02:36.119Z,19.19
2017-05-17T08:03:36.826Z,19.24
2017-05-17T08:04:37.533Z,19.40
2017-05-17T08:05:38.240Z,19.47
2017-05-17T08:06:38.947Z,19.47
2017-05-17T08:07:39.907Z,19.45
2017-05-17T08:08:40.614Z,19.51
2017-05-17T08:09:41.321Z,19.54
2017-05-17T08:10:42.035Z,19.54
2017-05-17T08:11:42.741Z,19.52
2017-05-17T08:12:43.702Z,19.66
2017-05-17T08:13:44.412Z,19.79
2017-05-17T08:14:45.122Z,19.76
2017-05-17T08:15:45.831Z,19.76
2017-05-17T08:16:46.547Z,19.70
2017-05-17T08:17:47.505Z,19.69
2017-05-17T08:18:48.212Z,19.82
2017-05-17T08:19:48.921Z,19.85
2017-05-17T08:20:49.631Z,19.89
2017-05-17T08:21:50.344Z,19.89
2017-05-17T08:22:51.303Z,19.92
2017-05-17T08:23:52.018Z,20.14
2017-05-17T08:24:52.726Z,20.13
2017-05-17T08:25:53.437Z,20.07
2017-05-17T08:26:54.145Z,20.07
2017-05-17T08:27:55.107Z,20.03
2017-05-17T08:28:55.817Z,20.13
2017-05-17T08:29:56.524Z,20.26
2017-05-17T08:30:57.237Z,20.24
2017-05-17T08:31:57.945Z,20.25
2017-05-17T08:32:58.904Z,20.25
2017-05-17T08:33:59.616Z,20.29
2017-05-17T08:35:00.324Z,20.36
2017-05-17T08:36:01.031Z,20.29
2017-05-17T08:37:01.737Z,20.43
2017-05-17T08:38:02.696Z,20.44
2017-05-17T08:39:03.406Z,20.59
2017-05-17T08:40:04.118Z,20.74
2017-05-17T08:41:04.839Z,20.56
2017-05-17T08:42:05.547Z,20.63
2017-05-17T08:43:06.510Z,20.81
2017-05-17T08:44:07.230Z,20.74
2017-05-17T08:45:07.942Z,20.75
2017-05-17T08:46:08.649Z,20.67
2017-05-17T08:47:09.354Z,20.84
2017-05-17T08:48:10.323Z,20.90
2017-05-17T08:49:11.038Z,20.88
2017-05-17T08:50:11.755Z,20.97
2017-05-17T08:51:12.467Z,21.03
2017-05-17T08:52:13.180Z,20.99
2017-05-17T08:53:14.142Z,20.99
2017-05-17T08:54:14.853Z,21.12
2017-05-17T08:55:15.567Z,21.17
2017-05-17T08:56:16.277Z,21.24
2017-05-17T08:57:16.988Z,21.20
2017-05-17T08:58:17.949Z,21.27
2017-05-17T08:59:18.664Z,21.21
2017-05-17T09:00:19.385Z,21.40
2017-05-17T09:01:20.096Z,21.42
2017-05-17T09:02:20.809Z,21.42
2017-05-17T09:03:21.770Z,21.45
2017-05-17T09:04:22.483Z,21.36
2017-05-17T09:05:23.204Z,21.37
2017-05-17T09:06:23.914Z,21.40
2017-05-17T09:07:24.623Z,21.57
2017-05-17T09:08:25.581Z,21.52
2017-05-17T09:09:26.307Z,21.58
2017-05-17T09:10:27.024Z,21.72
2017-05-17T09:11:27.730Z,21.79
2017-05-17T09:12:28.447Z,21.69
2017-05-17T09:13:29.409Z,21.72
2017-05-17T09:14:30.120Z,21.70
2017-05-17T09:15:30.826Z,21.76
2017-05-17T09:16:31.540Z,21.79
2017-05-17T09:17:32.259Z,21.83
2017-05-17T09:18:33.223Z,21.98
2017-05-17T09:19:33.932Z,22.00
2017-05-17T09:20:34.643Z,21.99
2017-05-17T09:21:35.359Z,21.99
2017-05-17T09:22:36.068Z,22.11
2017-05-17T09:23:37.026Z,21.99
2017-05-17T09:24:37.745Z,21.89
2017-05-17T09:25:38.460Z,22.04
2017-05-17T09:26:39.166Z,22.10
2017-05-17T09:27:39.876Z,22.02
2017-05-17T09:28:40.837Z,22.08
2017-05-17T09:29:41.545Z,22.13
2017-05-17T09:30:42.260Z,22.13
2017-05-17T09:31:42.968Z,22.13
2017-05-17T09:32:43.675Z,22.28
2017-05-17T09:33:44.638Z,22.33
2017-05-17T09:34:45.349Z,22.33
2017-05-17T09:35:46.064Z,22.45
2017-05-17T09:36:46.774Z,22.59
2017-05-17T09:37:47.485Z,22.60
2017-05-17T09:38:48.493Z,22.60
2017-05-17T09:39:49.200Z,22.66
2017-05-17T09:40:49.908Z,22.62
2017-05-17T09:41:50.621Z,22.54
2017-05-17T09:42:51.331Z,22.57
2017-05-17T09:43:52.302Z,22.51
2017-05-17T09:44:53.017Z,22.69
2017-05-17T09:45:53.727Z,22.73
2017-05-17T09:46:54.442Z,22.73
2017-05-17T09:47:55.151Z,22.69
2017-05-17T09:48:56.115Z,22.78
2017-05-17T09:49:56.824Z,22.76
2017-05-17T09:50:57.540Z,22.83
2017-05-17T09:51:58.252Z,22.94
2017-05-17T09:52:58.963Z,22.99
2017-05-17T09:53:59.924Z,22.99
2017-05-17T09:55:00.635Z,22.96
2017-05-17T09:56:01.346Z,23.05
2017-05-17T09:57:02.058Z,23.09
2017-05-17T09:58:02.775Z,23.17
2017-05-17T09:59:03.753Z,23.21
2017-05-17T10:00:04.474Z,23.27
2017-05-17T10:01:05.185Z,23.36
2017-05-17T10:02:05.896Z,23.31
2017-05-17T10:03:06.604Z,23.21
2017-05-17T10:04:07.560Z,23.25
2017-05-17T10:05:08.266Z,23.36
2017-05-17T10:06:08.974Z,23.31
2017-05-17T10:07:09.686Z,23.39
2017-05-17T10:08:10.399Z,23.32
2017-05-17T10:09:11.365Z,23.48
2017-05-17T10:10:12.076Z,23.31
2017-05-17T10:11:12.785Z,23.39
2017-05-17T10:12:13.505Z,23.43
2017-05-17T10:13:14.231Z,23.23
2017-05-17T10:14:15.192Z,23.41
2017-05-17T10:15:15.904Z,23.58
2017-05-17T10:16:16.612Z,23.51
2017-05-17T10:17:17.324Z,23.54
2017-05-17T10:18:18.038Z,23.50
2017-05-17T10:19:19.002Z,23.59
2017-05-17T10:20:19.721Z,23.65
2017-05-17T10:21:20.434Z,23.69
2017-05-17T10:22:21.146Z,23.83
2017-05-17T10:23:21.856Z,23.62
2017-05-17T10:24:22.817Z,23.77
2017-05-17T10:25:23.530Z,23.81
2017-05-17T10:26:24.241Z,23.96
2017-05-17T10:27:24.953Z,23.93
2017-05-17T10:28:25.667Z,24.02
2017-05-17T10:29:26.626Z,23.92
2017-05-17T10:30:27.333Z,23.99
2017-05-17T10:31:28.042Z,24.14
2017-05-17T10:32:28.752Z,24.10
2017-05-17T10:33:29.464Z,24.21
2017-05-17T10:34:30.480Z,24.26
2017-05-17T10:35:31.211Z,24.08
2017-05-17T10:36:31.924Z,23.99
2017-05-17T10:37:32.634Z,23.98
2017-05-17T10:38:33.343Z,24.02
2017-05-17T10:39:34.306Z,24.10
2017-05-17T10:40:35.018Z,24.18
2017-05-17T10:41:35.731Z,24.11
2017-05-17T10:42:36.445Z,24.13
2017-05-17T10:43:37.162Z,24.33
2017-05-17T10:44:38.128Z,24.43
2017-05-17T10:45:38.842Z,24.53
2017-05-17T10:46:39.555Z,24.53
2017-05-17T10:47:40.261Z,24.50
2017-05-17T10:48:40.972Z,24.39
2017-05-17T10:49:41.935Z,24.54
2017-05-17T10:50:42.645Z,24.45
2017-05-17T10:51:43.358Z,24.54
2017-05-17T10:52:44.070Z,24.74
2017-05-17T10:53:44.783Z,24.84
2017-05-17T10:54:45.745Z,24.81
2017-05-17T10:55:46.456Z,24.91
2017-05-17T10:56:47.166Z,25.06
2017-05-17T10:57:47.877Z,24.88
2017-05-17T10:58:48.591Z,25.03
2017-05-17T10:59:49.552Z,25.07
2017-05-17T11:00:50.262Z,25.17
2017-05-17T11:01:50.974Z,25.23
2017-05-17T11:02:51.690Z,25.25
2017-05-17T11:03:52.400Z,25.23
2017-05-17T11:04:53.366Z,25.06
2017-05-17T11:05:54.083Z,25.18
2017-05-17T11:06:54.805Z,25.23
2017-05-17T11:07:55.515Z,25.47
2017-05-17T11:08:56.229Z,25.50
2017-05-17T11:09:57.196Z,25.51
2017-05-17T11:10:57.912Z,25.28
2017-05-17T11:11:58.625Z,25.36
2017-05-17T11:12:59.339Z,25.35
2017-05-17T11:14:00.052Z,25.18
2017-05-17T11:15:01.015Z,25.41
2017-05-17T11:16:01.731Z,25.53
2017-05-17T11:17:02.445Z,25.73
2017-05-17T11:18:03.155Z,25.87
2017-05-17T11:19:03.862Z,25.93
2017-05-17T11:20:04.821Z,26.07
2017-05-17T11:21:05.535Z,26.22
2017-05-17T11:22:06.247Z,26.19
2017-05-17T11:23:06.959Z,26.33
2017-05-17T11:24:07.671Z,26.62
2017-05-17T11:25:08.632Z,26.83
2017-05-17T11:26:09.350Z,26.97
2017-05-17T11:27:10.073Z,26.89
2017-05-17T11:28:10.799Z,26.78
2017-05-17T11:29:11.511Z,26.77
2017-05-17T11:30:12.477Z,26.88
2017-05-17T11:31:13.201Z,26.90
2017-05-17T11:32:13.913Z,27.58
2017-05-17T11:33:14.627Z,28.37
2017-05-17T11:34:15.339Z,31.29
2017-05-17T11:35:16.304Z,36.93
2017-05-17T11:36:17.019Z,40.73
2017-05-17T11:37:17.739Z,41.60
2017-05-17T11:38:18.453Z,45.28
2017-05-17T11:39:19.166Z,47.84
2017-05-17T11:40:20.140Z,48.84
2017-05-17T11:41:20.855Z,47.26
2017-05-17T11:42:21.571Z,49.18
2017-05-17T11:43:22.287Z,51.03
2017-05-17T11:44:23.007Z,50.46
2017-05-17T11:45:23.971Z,52.31
2017-05-17T11:46:24.689Z,51.99
2017-05-17T11:47:25.408Z,53.83
2017-05-17T11:48:26.127Z,54.67
2017-05-17T11:49:26.844Z,55.59
2017-05-17T11:50:27.816Z,55.57
2017-05-17T11:51:28.543Z,52.08
2017-05-17T11:52:29.259Z,51.57
2017-05-17T11:53:29.973Z,54.34
2017-05-17T11:54:30.694Z,51.67
2017-05-17T11:55:31.662Z,52.65
2017-05-17T11:56:32.378Z,54.58
2017-05-17T11:57:33.099Z,53.13
2017-05-17T11:58:33.815Z,52.92
2017-05-17T11:59:34.534Z,55.51
2017-05-17T12:00:35.505Z,55.52
2017-05-17T12:01:36.230Z,56.38
2017-05-17T12:02:36.951Z,56.98
2017-05-17T12:03:37.673Z,56.72
2017-05-17T12:04:38.391Z,55.81
2017-05-17T12:05:39.358Z,55.13
2017-05-17T12:06:40.074Z,55.97
2017-05-17T12:07:40.793Z,49.02
2017-05-17T12:08:41.511Z,47.62
2017-05-17T12:09:42.229Z,53.64
2017-05-17T12:10:43.195Z,53.78
2017-05-17T12:11:43.913Z,52.55
2017-05-17T12:12:44.632Z,47.88
2017-05-17T12:13:45.350Z,50.27
2017-05-17T12:14:46.074Z,53.93
2017-05-17T12:15:47.046Z,50.50
2017-05-17T12:16:47.764Z,52.04
2017-05-17T12:17:48.485Z,55.23
2017-05-17T12:18:49.206Z,53.03
2017-05-17T12:19:49.935Z,52.15
2017-05-17T12:20:50.905Z,52.24
2017-05-17T12:21:51.623Z,50.98
2017-05-17T12:22:52.357Z,51.10
2017-05-17T12:23:53.077Z,54.08
2017-05-17T12:24:53.798Z,56.82
2017-05-17T12:25:54.770Z,57.55
2017-05-17T12:26:55.495Z,56.24
2017-05-17T12:27:56.222Z,55.41
2017-05-17T12:28:56.945Z,53.90
2017-05-17T12:29:57.666Z,57.35
2017-05-17T12:30:58.639Z,56.82
2017-05-17T12:31:59.406Z,54.60
2017-05-17T12:33:00.136Z,55.62
2017-05-17T12:34:00.854Z,57.08
2017-05-17T12:35:01.576Z,55.43
2017-05-17T12:36:02.548Z,56.92
2017-05-17T12:37:03.270Z,57.95
2017-05-17T12:38:03.992Z,57.27
2017-05-17T12:39:04.715Z,57.21
2017-05-17T12:40:05.439Z,59.69
2017-05-17T12:41:06.409Z,60.33
2017-05-17T12:42:07.131Z,58.87
2017-05-17T12:43:07.853Z,59.83
2017-05-17T12:44:08.576Z,60.88
2017-05-17T12:45:09.298Z,59.98
2017-05-17T12:46:10.268Z,58.91
2017-05-17T12:47:10.992Z,58.74
2017-05-17T12:48:11.716Z,59.79
2017-05-17T12:49:12.449Z,60.76
2017-05-17T12:50:13.174Z,59.94
2017-05-17T12:51:14.148Z,60.11
2017-05-17T12:52:14.871Z,60.23
2017-05-17T12:53:15.600Z,60.34
2017-05-17T12:54:16.322Z,57.16
2017-05-17T12:55:17.047Z,57.04
2017-05-17T12:56:18.021Z,59.34
2017-05-17T12:57:18.747Z,56.65
2017-05-17T12:58:19.475Z,56.43
2017-05-17T12:59:20.202Z,56.19
2017-05-17T13:00:20.926Z,58.79
2017-05-17T13:01:21.899Z,58.12
2017-05-17T13:02:22.622Z,58.50
2017-05-17T13:03:23.347Z,56.55